createdAt,value
2023-03-28T00:01:12.097Z,101403.97
2023-03-28T00:04:23.773Z,101399.96
2023-03-28T00:07:35.163Z,101396.84
2023-03-28T00:10:28.287Z,101392.48
2023-03-28T00:13:39.917Z,101385.38
2023-03-28T00:16:42.067Z,101378.92
2023-03-28T00:19:41.137Z,101379.31
2023-03-28T00:23:04.661Z,101371.81
2023-03-28T00:26:05.401Z,101362.98
2023-03-28T00:29:21.261Z,101356.93
2023-03-28T00:32:32.695Z,101355.77
2023-03-28T00:35:43.606Z,101351.23
2023-03-28T00:38:47.609Z,101346.96
2023-03-28T00:42:03.040Z,101341.84
2023-03-28T00:45:12.595Z,101338.39
2023-03-28T00:48:26.687Z,101336.77
2023-03-28T00:51:33.468Z,101335.48
2023-03-28T00:54:40.421Z,101328.88
2023-03-28T00:57:46.265Z,101322.61
2023-03-28T01:00:56.849Z,101316.08
2023-03-28T01:04:10.475Z,101313.09
2023-03-28T01:07:20.520Z,101307.95
2023-03-28T01:10:33.157Z,101300.04
2023-03-28T01:13:46.759Z,101288.90
2023-03-28T01:16:58.267Z,101281.59
2023-03-28T01:20:20.958Z,101270.81
2023-03-28T01:23:42.676Z,101264.50
2023-03-28T01:26:49.863Z,101259.11
2023-03-28T01:30:10.480Z,101251.59
2023-03-28T01:33:49.831Z,101246.98
2023-03-28T01:37:03.426Z,101239.83
2023-03-28T01:40:14.205Z,101239.65
2023-03-28T01:43:31.665Z,101234.14
2023-03-28T01:46:45.684Z,101228.44
2023-03-28T01:50:02.399Z,101225.66
2023-03-28T01:53:10.579Z,101228.59
2023-03-28T01:56:24.256Z,101231.14
2023-03-28T01:59:38.418Z,101233.41
2023-03-28T02:03:11.881Z,101230.58
2023-03-28T02:06:24.388Z,101234.69
2023-03-28T02:09:28.478Z,101234.73
2023-03-28T02:12:44.749Z,101222.92
2023-03-28T02:15:58.159Z,101219.63
2023-03-28T02:19:12.781Z,101211.23
2023-03-28T02:22:25.976Z,101207.77
2023-03-28T02:25:46.477Z,101193.77
2023-03-28T02:29:01.049Z,101183.92
2023-03-28T02:32:09.952Z,101169.02
2023-03-28T02:35:25.457Z,101153.90
2023-03-28T02:38:41.873Z,101116.55
2023-03-28T02:41:59.613Z,101111.70
2023-03-28T02:45:14.703Z,101100.53
2023-03-28T02:48:22.679Z,101097.75
2023-03-28T02:51:36.259Z,101106.45
2023-03-28T02:54:51.003Z,101114.09
2023-03-28T02:58:10.556Z,101116.31
2023-03-28T03:01:15.722Z,101100.86
2023-03-28T03:04:25.425Z,101097.31
2023-03-28T03:07:37.247Z,101095.77
2023-03-28T03:10:48.327Z,101089.88
2023-03-28T03:14:00.434Z,101089.23
2023-03-28T03:17:11.400Z,101092.34
2023-03-28T03:20:23.101Z,101087.98
2023-03-28T03:23:33.932Z,101080.38
2023-03-28T03:26:44.979Z,101074.77
2023-03-28T03:29:55.772Z,101068.17
2023-03-28T03:33:10.759Z,101050.75
2023-03-28T03:36:21.519Z,101043.98
2023-03-28T03:39:32.350Z,101037.68
2023-03-28T03:42:43.158Z,101038.16
2023-03-28T03:45:54.128Z,101031.94
2023-03-28T03:49:05.037Z,101018.81
2023-03-28T03:52:15.908Z,101012.70
2023-03-28T03:55:27.108Z,101002.58
2023-03-28T03:58:38.258Z,100991.20
2023-03-28T04:01:49.172Z,100979.06
2023-03-28T04:05:08.433Z,100977.02
2023-03-28T04:08:22.569Z,100970.08
2023-03-28T04:13:22.409Z,100969.19
2023-03-28T04:16:40.832Z,100968.99
2023-03-28T04:19:17.976Z,100965.88
2023-03-28T04:22:30.093Z,100962.33
2023-03-28T04:25:33.914Z,100955.75
2023-03-28T04:28:50.259Z,100952.64
2023-03-28T04:32:01.175Z,100951.35
2023-03-28T04:35:16.773Z,100947.36
2023-03-28T04:38:28.869Z,100938.25
2023-03-28T04:41:40.709Z,100924.49
2023-03-28T04:44:54.267Z,100914.66
2023-03-28T04:48:05.357Z,100910.48
2023-03-28T04:51:16.286Z,100903.91
2023-03-28T04:54:27.251Z,100902.36
2023-03-28T04:57:41.101Z,100893.95
2023-03-28T05:00:51.930Z,100892.20
2023-03-28T05:04:08.754Z,100893.70
2023-03-28T05:07:19.655Z,100890.42
2023-03-28T05:10:30.566Z,100885.95
2023-03-28T05:13:41.481Z,100880.67
2023-03-28T05:16:52.474Z,100869.11
2023-03-28T05:20:11.265Z,100864.48
2023-03-28T05:23:27.979Z,100865.17
2023-03-28T05:26:38.867Z,100856.73
2023-03-28T05:29:49.772Z,100846.98
2023-03-28T05:33:01.079Z,100839.91
2023-03-28T05:36:13.103Z,100835.95
2023-03-28T05:39:23.792Z,100826.45
2023-03-28T05:42:34.660Z,100818.08
2023-03-28T05:45:45.504Z,100802.98
2023-03-28T05:48:56.275Z,100800.20
2023-03-28T05:52:07.314Z,100793.24
2023-03-28T05:55:18.346Z,100787.95
2023-03-28T05:58:29.832Z,100781.56
2023-03-28T06:01:42.697Z,100774.75
2023-03-28T06:04:55.247Z,100777.34
2023-03-28T06:08:06.134Z,100782.60
2023-03-28T06:11:17.394Z,100777.80
2023-03-28T06:14:32.251Z,100774.60
2023-03-28T06:17:43.212Z,100772.02
2023-03-28T06:20:55.065Z,100766.27
2023-03-28T06:24:06.074Z,100748.27
2023-03-28T06:27:16.944Z,100744.36
2023-03-28T06:30:27.938Z,100737.49
2023-03-28T06:33:41.680Z,100723.34
2023-03-28T06:36:52.540Z,100716.10
2023-03-28T06:40:03.844Z,100711.52
2023-03-28T06:43:14.721Z,100703.38
2023-03-28T06:46:25.529Z,100697.16
2023-03-28T06:49:36.716Z,100700.66
2023-03-28T06:52:47.715Z,100697.79
2023-03-28T06:55:47.892Z,100679.86
2023-03-28T06:58:58.774Z,100690.42
2023-03-28T07:02:11.466Z,100669.38
2023-03-28T07:05:22.515Z,100667.48
2023-03-28T07:08:33.415Z,100671.38
2023-03-28T07:11:44.263Z,100669.44
2023-03-28T07:14:55.299Z,100668.17
2023-03-28T07:18:07.565Z,100660.64
2023-03-28T07:21:19.330Z,100657.80
2023-03-28T07:24:20.265Z,100662.25
2023-03-28T07:27:31.060Z,100657.92
2023-03-28T07:30:36.255Z,100652.29
2023-03-28T07:33:38.616Z,100655.39
2023-03-28T07:36:50.151Z,100645.26
2023-03-28T07:40:05.525Z,100642.02
2023-03-28T07:43:04.200Z,100637.39
2023-03-28T07:46:02.518Z,100637.21
2023-03-28T07:49:18.090Z,100623.59
2023-03-28T07:53:02.438Z,100622.81
2023-03-28T07:55:59.305Z,100612.14
2023-03-28T07:59:10.553Z,100602.69
2023-03-28T08:06:20.544Z,100589.16
2023-03-28T08:09:23.425Z,100590.65
2023-03-28T08:12:32.977Z,100587.48
2023-03-28T08:19:55.487Z,100569.83
2023-03-28T08:23:15.437Z,100569.17
2023-03-28T08:26:31.235Z,100568.90
2023-03-28T08:29:50.031Z,100567.36
2023-03-28T08:32:58.057Z,100564.65
2023-03-28T08:36:09.361Z,100560.58
2023-03-28T08:39:20.436Z,100557.70
2023-03-28T08:42:42.210Z,100554.02
2023-03-28T08:45:48.583Z,100547.69
2023-03-28T08:49:04.027Z,100540.90
2023-03-28T08:52:17.594Z,100528.98
2023-03-28T08:55:32.553Z,100511.46
2023-03-28T08:58:42.333Z,100500.53
2023-03-28T09:01:34.221Z,100492.80
2023-03-28T09:04:36.205Z,100489.26
2023-03-28T09:07:36.470Z,100493.41
2023-03-28T09:10:35.364Z,100491.63
2023-03-28T09:13:39.162Z,100482.84
2023-03-28T09:16:36.285Z,100482.86
2023-03-28T09:19:48.486Z,100471.60
2023-03-28T09:23:09.092Z,100473.95
2023-03-28T09:26:26.556Z,100481.11
2023-03-28T09:29:24.939Z,100475.13
2023-03-28T09:32:20.301Z,100470.25
2023-03-28T09:35:15.778Z,100464.77
2023-03-28T09:38:10.271Z,100463.27
2023-03-28T09:41:05.064Z,100469.23
2023-03-28T09:44:02.803Z,100465.69
2023-03-28T09:47:19.606Z,100452.79
2023-03-28T09:50:19.645Z,100460.34
2023-03-28T09:53:20.974Z,100458.19
2023-03-28T09:56:19.465Z,100464.23
2023-03-28T09:59:14.184Z,100460.77
2023-03-28T10:02:25.989Z,100454.55
2023-03-28T10:05:32.073Z,100451.92
2023-03-28T10:08:33.855Z,100450.09
2023-03-28T10:11:44.891Z,100449.39
2023-03-28T10:14:36.939Z,100431.75
2023-03-28T10:17:29.989Z,100427.90
2023-03-28T10:20:22.239Z,100429.98
2023-03-28T10:23:16.240Z,100431.70
2023-03-28T10:26:09.619Z,100433.20
2023-03-28T10:29:04.469Z,100435.30
2023-03-28T10:31:55.849Z,100430.88
2023-03-28T10:34:59.107Z,100422.43
2023-03-28T10:37:57.187Z,100422.56
2023-03-28T10:41:11.826Z,100414.77
2023-03-28T10:44:32.233Z,100408.00
2023-03-28T10:47:27.580Z,100408.08
2023-03-28T10:50:28.814Z,100405.40
2023-03-28T10:53:37.277Z,100403.38
2023-03-28T10:56:34.559Z,100404.76
2023-03-28T10:59:35.305Z,100405.76
2023-03-28T11:02:40.449Z,100403.79
2023-03-28T11:05:54.975Z,100391.56
2023-03-28T11:09:02.115Z,100386.24
2023-03-28T11:12:04.638Z,100383.35
2023-03-28T11:15:01.664Z,100375.39
2023-03-28T11:17:58.082Z,100375.92
2023-03-28T11:20:55.042Z,100362.73
2023-03-28T11:23:54.739Z,100355.72
2023-03-28T11:27:14.949Z,100354.87
2023-03-28T11:30:39.840Z,100352.54
2023-03-28T11:33:58.613Z,100346.17
2023-03-28T11:36:53.661Z,100346.24
2023-03-28T11:39:48.406Z,100348.44
2023-03-28T11:42:46.804Z,100345.55
2023-03-28T11:45:52.529Z,100342.04
2023-03-28T11:48:51.633Z,100341.44
2023-03-28T11:51:46.991Z,100328.13
2023-03-28T11:54:42.854Z,100328.11
2023-03-28T11:57:36.667Z,100326.74
2023-03-28T12:00:34.740Z,100330.30
2023-03-28T12:03:33.151Z,100329.73
2023-03-28T12:06:27.597Z,100327.87
2023-03-28T12:09:21.830Z,100324.09
2023-03-28T12:12:14.238Z,100323.49
2023-03-28T12:15:08.295Z,100328.05
2023-03-28T12:18:31.313Z,100319.60
2023-03-28T12:21:27.671Z,100317.08
2023-03-28T12:24:27.126Z,100318.23
2023-03-28T12:27:31.611Z,100326.70
2023-03-28T12:30:26.151Z,100328.93
2023-03-28T12:33:23.307Z,100334.92
2023-03-28T12:36:34.333Z,100335.91
2023-03-28T12:39:35.587Z,100350.70
2023-03-28T12:42:37.912Z,100355.92
2023-03-28T12:45:30.697Z,100346.02
2023-03-28T12:48:26.021Z,100350.14
2023-03-28T12:51:19.160Z,100346.59
2023-03-28T12:54:22.743Z,100358.41
2023-03-28T12:57:26.758Z,100364.23
2023-03-28T13:00:29.760Z,100365.23
2023-03-28T13:03:46.910Z,100362.13
2023-03-28T13:06:47.697Z,100362.82
2023-03-28T13:09:45.373Z,100362.36
2023-03-28T13:12:46.794Z,100352.70
2023-03-28T13:15:50.169Z,100355.08
2023-03-28T13:18:46.635Z,100346.02
2023-03-28T13:21:44.376Z,100342.59
2023-03-28T13:24:37.431Z,100334.50
2023-03-28T13:27:32.892Z,100315.79
2023-03-28T13:30:26.399Z,100306.67
2023-03-28T13:33:22.026Z,100304.97
2023-03-28T13:36:28.716Z,100298.45
2023-03-28T13:39:23.353Z,100292.73
2023-03-28T13:45:17.608Z,100285.66
2023-03-28T13:51:05.607Z,100275.98
2023-03-28T13:53:55.922Z,100261.16
2023-03-28T13:56:47.347Z,100269.61
2023-03-28T13:59:39.071Z,100269.93
2023-03-28T14:02:37.831Z,100267.86
2023-03-28T14:05:29.924Z,100271.87
2023-03-28T14:08:25.608Z,100275.06
2023-03-28T14:11:18.819Z,100275.08
2023-03-28T14:14:12.039Z,100283.85
2023-03-28T14:17:04.196Z,100282.70
2023-03-28T14:19:56.900Z,100277.36
2023-03-28T14:22:59.615Z,100276.41
2023-03-28T14:25:52.666Z,100269.95
2023-03-28T14:28:43.017Z,100268.23
2023-03-28T14:31:34.982Z,100266.88
2023-03-28T14:34:26.705Z,100265.23
2023-03-28T14:37:18.625Z,100270.92
2023-03-28T14:40:20.166Z,100276.59
2023-03-28T14:43:21.530Z,100280.80
2023-03-28T14:46:12.626Z,100284.98
2023-03-28T14:49:06.394Z,100282.63
2023-03-28T14:51:58.324Z,100277.27
2023-03-28T14:54:49.417Z,100279.36
2023-03-28T14:57:40.112Z,100273.59
2023-03-28T15:00:36.534Z,100274.50
2023-03-28T15:03:30.786Z,100269.04
2023-03-28T15:06:23.665Z,100270.52
2023-03-28T15:09:21.568Z,100269.63
2023-03-28T15:12:16.520Z,100278.66
2023-03-28T15:15:08.557Z,100272.34
2023-03-28T15:18:00.370Z,100272.92
2023-03-28T15:20:52.772Z,100273.68
2023-03-28T15:23:46.055Z,100275.48
2023-03-28T15:26:38.643Z,100274.09
2023-03-28T15:29:31.674Z,100275.79
2023-03-28T15:32:27.985Z,100282.59
2023-03-28T15:35:30.146Z,100290.02
2023-03-28T15:38:22.967Z,100299.71
2023-03-28T15:41:24.138Z,100289.34
2023-03-28T15:44:26.473Z,100270.56
2023-03-28T15:47:22.490Z,100260.23
2023-03-28T15:50:23.181Z,100263.36
2023-03-28T15:53:22.219Z,100256.48
2023-03-28T15:56:18.557Z,100248.67
2023-03-28T15:59:14.722Z,100245.80
2023-03-28T16:02:32.668Z,100248.04
2023-03-28T16:05:34.967Z,100241.35
2023-03-28T16:08:31.166Z,100244.53
2023-03-28T16:11:24.479Z,100248.02
2023-03-28T16:14:44.131Z,100247.27
2023-03-28T16:17:59.022Z,100242.48
2023-03-28T16:20:56.774Z,100234.40
2023-03-28T16:23:48.103Z,100233.20
2023-03-28T16:26:38.816Z,100224.63
2023-03-28T16:29:30.265Z,100223.01
2023-03-28T16:32:23.977Z,100231.34
2023-03-28T16:35:14.154Z,100233.15
2023-03-28T16:38:05.236Z,100235.23
2023-03-28T16:40:56.158Z,100232.81
2023-03-28T16:43:46.876Z,100240.61
2023-03-28T16:46:40.582Z,100243.88
2023-03-28T16:50:10.091Z,100250.04
2023-03-28T16:53:02.439Z,100254.69
2023-03-28T16:55:53.830Z,100254.21
2023-03-28T16:58:44.440Z,100261.05
2023-03-28T17:01:39.204Z,100269.63
2023-03-28T17:04:30.216Z,100273.51
2023-03-28T17:07:21.394Z,100276.71
2023-03-28T17:10:21.504Z,100277.34
2023-03-28T17:13:21.862Z,100277.33
2023-03-28T17:16:15.392Z,100277.98
2023-03-28T17:19:09.385Z,100284.70
2023-03-28T17:22:07.729Z,100284.60
2023-03-28T17:25:00.696Z,100278.80
2023-03-28T17:28:10.499Z,100282.41
2023-03-28T17:31:02.542Z,100282.02
2023-03-28T17:33:53.421Z,100284.64
2023-03-28T17:36:44.571Z,100294.99
2023-03-28T17:39:55.361Z,100300.67
2023-03-28T17:42:46.239Z,100307.14
2023-03-28T17:45:37.021Z,100316.84
2023-03-28T17:48:27.969Z,100322.70
2023-03-28T17:51:26.249Z,100320.27
2023-03-28T17:54:17.520Z,100322.71
2023-03-28T17:57:11.110Z,100317.28
2023-03-28T18:00:02.632Z,100318.05
2023-03-28T18:03:03.270Z,100333.86
2023-03-28T18:06:20.045Z,100338.44
2023-03-28T18:09:23.714Z,100339.73
2023-03-28T18:12:28.492Z,100344.37
2023-03-28T18:15:21.803Z,100341.73
2023-03-28T18:18:13.230Z,100339.64
2023-03-28T18:21:24.480Z,100338.59
2023-03-28T18:24:15.817Z,100335.99
2023-03-28T18:27:09.554Z,100331.70
2023-03-28T18:30:12.419Z,100336.35
2023-03-28T18:33:03.224Z,100336.30
2023-03-28T18:36:14.891Z,100333.16
2023-03-28T18:39:15.528Z,100331.39
2023-03-28T18:42:08.639Z,100332.36
2023-03-28T18:45:15.959Z,100335.86
2023-03-28T18:48:21.729Z,100338.36
2023-03-28T18:51:31.677Z,100334.77
2023-03-28T18:54:46.239Z,100329.25
2023-03-28T18:57:55.796Z,100322.46
2023-03-28T19:01:08.896Z,100325.88
2023-03-28T19:03:59.861Z,100325.81
2023-03-28T19:06:53.926Z,100324.83
2023-03-28T19:09:53.893Z,100330.83
2023-03-28T19:12:47.368Z,100334.04
2023-03-28T19:15:48.633Z,100338.66
2023-03-28T19:18:59.465Z,100345.19
2023-03-28T19:21:53.527Z,100346.70
2023-03-28T19:25:04.352Z,100347.80
2023-03-28T19:27:55.086Z,100355.13
2023-03-28T19:30:48.883Z,100354.49
2023-03-28T19:34:01.073Z,100354.12
2023-03-28T19:37:11.889Z,100359.09
2023-03-28T19:40:22.970Z,100359.25
2023-03-28T19:43:30.912Z,100350.95
2023-03-28T19:46:41.959Z,100340.48
2023-03-28T19:49:52.822Z,100349.27
2023-03-28T19:52:58.958Z,100358.15
2023-03-28T19:56:01.738Z,100364.48
2023-03-28T19:58:54.750Z,100363.55
2023-03-28T20:01:48.180Z,100365.80
2023-03-28T20:04:38.911Z,100372.50
2023-03-28T20:07:33.306Z,100371.25
2023-03-28T20:10:39.678Z,100367.14
2023-03-28T20:13:40.868Z,100372.98
2023-03-28T20:16:36.313Z,100376.70
2023-03-28T20:19:27.338Z,100381.58
2023-03-28T20:22:25.336Z,100385.66
2023-03-28T20:25:28.950Z,100390.10
2023-03-28T20:28:21.332Z,100395.90
2023-03-28T20:31:23.302Z,100400.31
2023-03-28T20:34:34.349Z,100399.41
2023-03-28T20:37:35.250Z,100397.90
2023-03-28T20:40:46.387Z,100396.77
2023-03-28T20:44:03.482Z,100402.33
2023-03-28T20:46:54.458Z,100404.02
2023-03-28T20:50:08.951Z,100404.79
2023-03-28T20:53:09.893Z,100404.20
2023-03-28T20:56:05.575Z,100395.99
2023-03-28T20:59:06.310Z,100395.61
2023-03-28T21:01:59.903Z,100396.24
2023-03-28T21:05:12.748Z,100403.44
2023-03-28T21:08:08.634Z,100397.09
2023-03-28T21:10:59.011Z,100393.13
2023-03-28T21:14:01.291Z,100388.04
2023-03-28T21:17:22.230Z,100384.14
2023-03-28T21:20:13.177Z,100384.36
2023-03-28T21:23:24.042Z,100383.38
2023-03-28T21:26:29.252Z,100381.48
2023-03-28T21:29:41.092Z,100379.08
2023-03-28T21:32:54.915Z,100369.94
2023-03-28T21:36:03.898Z,100366.77
2023-03-28T21:38:58.883Z,100362.55
2023-03-28T21:41:49.709Z,100365.80
2023-03-28T21:44:40.353Z,100365.39
2023-03-28T21:47:44.855Z,100364.41
2023-03-28T21:51:06.934Z,100364.09
2023-03-28T21:53:59.910Z,100364.42
2023-03-28T21:57:13.748Z,100363.19
2023-03-28T22:00:20.888Z,100362.89
2023-03-28T22:03:35.509Z,100357.70
2023-03-28T22:06:39.607Z,100363.23
2023-03-28T22:09:51.251Z,100361.70
2023-03-28T22:13:07.360Z,100356.20
2023-03-28T22:16:19.989Z,100356.05
2023-03-28T22:19:21.358Z,100354.11
2023-03-28T22:22:20.516Z,100350.80
2023-03-28T22:25:14.497Z,100355.42
2023-03-28T22:28:25.885Z,100357.54
2023-03-28T22:31:38.932Z,100352.95
2023-03-28T22:34:53.831Z,100348.05
2023-03-28T22:38:24.788Z,100345.02
2023-03-28T22:41:40.147Z,100333.00
2023-03-28T22:44:41.160Z,100320.72
2023-03-28T22:47:52.569Z,100315.39
2023-03-28T22:51:12.014Z,100311.52
2023-03-28T22:54:29.637Z,100311.27
2023-03-28T22:57:49.329Z,100317.88
2023-03-28T23:00:57.865Z,100325.02
2023-03-28T23:04:02.004Z,100321.76
2023-03-28T23:07:14.008Z,100318.12
2023-03-28T23:10:09.443Z,100320.33
2023-03-28T23:13:00.626Z,100321.34
2023-03-28T23:16:16.016Z,100326.20
2023-03-28T23:23:57.122Z,100331.14
2023-03-28T23:27:11.208Z,100323.13
2023-03-28T23:30:22.257Z,100325.90
2023-03-28T23:33:33.646Z,100322.38
2023-03-28T23:36:46.362Z,100326.27
2023-03-28T23:39:53.094Z,100312.09
2023-03-28T23:43:04.028Z,100305.95
2023-03-28T23:46:04.597Z,100307.58
2023-03-28T23:48:57.917Z,100311.49
2023-03-28T23:52:08.768Z,100313.19
2023-03-28T23:55:20.368Z,100307.38
2023-03-28T23:58:16.526Z,100309.83
